sensor_id;sensor_type;location;lat;lon;timestamp;pressure;altitude;pressure_sealevel;temperature;humidity
6435;BME280;3250;42.694;23.278;2024-03-23T00:52:39;94874.25;;;5.70;68.66
6435;BME280;3250;42.694;23.278;2024-03-23T00:55:05;94871.09;;;5.75;68.72
6435;BME280;3250;42.694;23.278;2024-03-23T00:57:30;94870.28;;;5.74;68.20
6435;BME280;3250;42.694;23.278;2024-03-23T00:59:56;94872.88;;;5.74;68.21
6435;BME280;3250;42.694;23.278;2024-03-23T01:02:21;94866.31;;;5.78;68.03
6435;BME280;3250;42.694;23.278;2024-03-23T01:04:47;94870.00;;;5.69;68.46
6435;BME280;3250;42.694;23.278;2024-03-23T01:07:12;94850.28;;;5.52;68.60
6435;BME280;3250;42.694;23.278;2024-03-23T01:09:38;94863.97;;;5.68;68.59
6435;BME280;3250;42.694;23.278;2024-03-23T01:12:04;94859.09;;;5.65;68.83
6435;BME280;3250;42.694;23.278;2024-03-23T01:14:30;94863.53;;;5.36;69.84
6435;BME280;3250;42.694;23.278;2024-03-23T01:16:55;94858.00;;;5.16;71.08
6435;BME280;3250;42.694;23.278;2024-03-23T01:19:22;94854.97;;;5.27;70.91
6435;BME280;3250;42.694;23.278;2024-03-23T01:21:48;94855.78;;;5.27;70.81
6435;BME280;3250;42.694;23.278;2024-03-23T01:24:14;94855.31;;;5.24;70.77
6435;BME280;3250;42.694;23.278;2024-03-23T01:26:40;94869.75;;;5.12;71.78
6435;BME280;3250;42.694;23.278;2024-03-23T01:29:05;94871.94;;;5.08;72.16
6435;BME280;3250;42.694;23.278;2024-03-23T01:31:31;94864.75;;;4.87;73.20
6435;BME280;3250;42.694;23.278;2024-03-23T01:33:57;94861.38;;;5.02;72.74
6435;BME280;3250;42.694;23.278;2024-03-23T01:36:23;94849.78;;;5.04;72.28
6435;BME280;3250;42.694;23.278;2024-03-23T01:38:49;94856.72;;;5.12;72.25
6435;BME280;3250;42.694;23.278;2024-03-23T01:41:14;94865.19;;;5.14;71.77
6435;BME280;3250;42.694;23.278;2024-03-23T01:43:40;94850.59;;;5.05;71.81
6435;BME280;3250;42.694;23.278;2024-03-23T01:46:06;94862.16;;;5.25;71.58
6435;BME280;3250;42.694;23.278;2024-03-23T01:48:32;94859.16;;;5.13;71.34
6435;BME280;3250;42.694;23.278;2024-03-23T01:50:58;94852.88;;;5.22;70.86
6435;BME280;3250;42.694;23.278;2024-03-23T01:53:24;94860.34;;;5.25;70.54
6435;BME280;3250;42.694;23.278;2024-03-23T01:55:50;94859.63;;;5.31;70.39
6435;BME280;3250;42.694;23.278;2024-03-23T01:58:16;94844.06;;;5.23;70.33
6435;BME280;3250;42.694;23.278;2024-03-23T02:00:42;94850.25;;;5.08;70.73
6435;BME280;3250;42.694;23.278;2024-03-23T02:03:27;94844.94;;;5.16;70.33
6435;BME280;3250;42.694;23.278;2024-03-23T02:05:53;94840.38;;;5.18;70.15
6435;BME280;3250;42.694;23.278;2024-03-23T02:08:23;94865.47;;;5.19;70.81
6435;BME280;3250;42.694;23.278;2024-03-23T02:10:49;94863.13;;;5.09;71.07
6435;BME280;3250;42.694;23.278;2024-03-23T02:13:18;94854.56;;;5.15;71.12
6435;BME280;3250;42.694;23.278;2024-03-23T02:15:44;94862.91;;;5.11;71.27
6435;BME280;3250;42.694;23.278;2024-03-23T02:18:10;94868.56;;;5.00;71.53
6435;BME280;3250;42.694;23.278;2024-03-23T02:20:36;94866.88;;;5.07;71.26
6435;BME280;3250;42.694;23.278;2024-03-23T02:23:02;94852.84;;;5.08;71.01
6435;BME280;3250;42.694;23.278;2024-03-23T02:25:27;94866.81;;;5.15;70.83
6435;BME280;3250;42.694;23.278;2024-03-23T02:27:53;94862.50;;;4.84;72.01
6435;BME280;3250;42.694;23.278;2024-03-23T02:30:20;94873.66;;;4.93;71.37
6435;BME280;3250;42.694;23.278;2024-03-23T02:32:45;94870.72;;;4.96;71.31
6435;BME280;3250;42.694;23.278;2024-03-23T02:35:11;94852.63;;;4.94;70.82
6435;BME280;3250;42.694;23.278;2024-03-23T02:37:36;94866.47;;;4.95;71.32
6435;BME280;3250;42.694;23.278;2024-03-23T02:40:03;94838.66;;;4.73;71.07
6435;BME280;3250;42.694;23.278;2024-03-23T02:42:30;94864.66;;;4.81;72.04
6435;BME280;3250;42.694;23.278;2024-03-23T02:44:55;94866.63;;;4.79;72.06
6435;BME280;3250;42.694;23.278;2024-03-23T02:47:21;94868.41;;;4.78;72.06
6435;BME280;3250;42.694;23.278;2024-03-23T02:49:46;94863.50;;;4.83;71.22
6435;BME280;3250;42.694;23.278;2024-03-23T02:52:11;94857.81;;;4.80;71.39
6435;BME280;3250;42.694;23.278;2024-03-23T02:54:37;94860.16;;;4.75;71.65
6435;BME280;3250;42.694;23.278;2024-03-23T02:57:02;94833.19;;;4.60;71.67
6435;BME280;3250;42.694;23.278;2024-03-23T02:59:28;94869.34;;;4.40;72.81
6435;BME280;3250;42.694;23.278;2024-03-23T03:01:53;94851.34;;;4.30;73.35
6435;BME280;3250;42.694;23.278;2024-03-23T03:04:19;94860.34;;;4.42;73.17
6435;BME280;3250;42.694;23.278;2024-03-23T03:06:48;94838.69;;;4.42;72.63
6435;BME280;3250;42.694;23.278;2024-03-23T03:09:13;94846.50;;;4.19;73.39
6435;BME280;3250;42.694;23.278;2024-03-23T03:11:39;94857.19;;;4.32;73.84
6435;BME280;3250;42.694;23.278;2024-03-23T03:14:04;94862.19;;;4.34;73.67
6435;BME280;3250;42.694;23.278;2024-03-23T03:16:32;94856.50;;;4.38;73.44
6435;BME280;3250;42.694;23.278;2024-03-23T03:18:58;94865.66;;;4.26;74.09
6435;BME280;3250;42.694;23.278;2024-03-23T03:21:23;94858.50;;;4.28;73.50
6435;BME280;3250;42.694;23.278;2024-03-23T03:23:49;94859.25;;;4.37;73.44
6435;BME280;3250;42.694;23.278;2024-03-23T03:26:16;94870.44;;;4.23;74.14
6435;BME280;3250;42.694;23.278;2024-03-23T03:28:43;94871.94;;;4.40;73.60
6435;BME280;3250;42.694;23.278;2024-03-23T03:31:09;94862.78;;;4.44;73.02
6435;BME280;3250;42.694;23.278;2024-03-23T03:33:35;94857.69;;;4.50;72.74
6435;BME280;3250;42.694;23.278;2024-03-23T03:36:00;94860.66;;;4.47;72.27
6435;BME280;3250;42.694;23.278;2024-03-23T03:38:25;94866.03;;;4.46;72.70
6435;BME280;3250;42.694;23.278;2024-03-23T03:40:51;94865.50;;;4.28;73.52
6435;BME280;3250;42.694;23.278;2024-03-23T03:43:18;94855.34;;;4.10;74.13
6435;BME280;3250;42.694;23.278;2024-03-23T03:45:51;94857.09;;;4.17;74.24
6435;BME280;3250;42.694;23.278;2024-03-23T03:48:17;94862.06;;;4.04;74.96
6435;BME280;3250;42.694;23.278;2024-03-23T03:50:42;94866.38;;;3.89;75.26
6435;BME280;3250;42.694;23.278;2024-03-23T03:53:08;94871.53;;;3.97;75.48
6435;BME280;3250;42.694;23.278;2024-03-23T03:55:33;94867.06;;;3.75;75.64
6435;BME280;3250;42.694;23.278;2024-03-23T03:57:59;94864.28;;;3.76;76.05
6435;BME280;3250;42.694;23.278;2024-03-23T04:00:24;94866.25;;;3.74;76.17
6435;BME280;3250;42.694;23.278;2024-03-23T04:02:50;94870.97;;;3.79;76.21
6435;BME280;3250;42.694;23.278;2024-03-23T04:05:16;94866.28;;;3.66;76.65
6435;BME280;3250;42.694;23.278;2024-03-23T04:07:42;94858.75;;;3.79;75.99
6435;BME280;3250;42.694;23.278;2024-03-23T04:10:07;94866.72;;;3.78;75.85
6435;BME280;3250;42.694;23.278;2024-03-23T04:12:34;94868.84;;;3.74;75.79
6435;BME280;3250;42.694;23.278;2024-03-23T04:14:59;94869.34;;;3.78;75.62
6435;BME280;3250;42.694;23.278;2024-03-23T04:17:26;94873.03;;;3.84;75.51
6435;BME280;3250;42.694;23.278;2024-03-23T04:19:56;94878.56;;;3.80;75.77
6435;BME280;3250;42.694;23.278;2024-03-23T04:22:22;94880.38;;;3.88;76.07
6435;BME280;3250;42.694;23.278;2024-03-23T04:24:49;94864.75;;;3.88;75.52
6435;BME280;3250;42.694;23.278;2024-03-23T04:27:14;94878.34;;;3.98;74.87
6435;BME280;3250;42.694;23.278;2024-03-23T04:29:40;94874.50;;;3.86;75.67
6435;BME280;3250;42.694;23.278;2024-03-23T04:32:06;94871.81;;;4.02;75.41
6435;BME280;3250;42.694;23.278;2024-03-23T04:34:31;94876.50;;;4.07;74.90
6435;BME280;3250;42.694;23.278;2024-03-23T04:36:58;94880.31;;;3.96;74.67
6435;BME280;3250;42.694;23.278;2024-03-23T04:39:24;94885.78;;;4.09;74.41
6435;BME280;3250;42.694;23.278;2024-03-23T04:41:49;94880.94;;;4.06;74.69
6435;BME280;3250;42.694;23.278;2024-03-23T04:44:15;94876.81;;;4.12;74.74
6435;BME280;3250;42.694;23.278;2024-03-23T04:46:40;94884.00;;;4.41;74.03
6435;BME280;3250;42.694;23.278;2024-03-23T04:49:06;94871.63;;;4.66;73.10
6435;BME280;3250;42.694;23.278;2024-03-23T04:51:40;94884.78;;;5.10;72.36
6435;BME280;3250;42.694;23.278;2024-03-23T04:54:14;94876.28;;;5.30;70.79
6435;BME280;3250;42.694;23.278;2024-03-23T04:56:39;94869.63;;;5.72;69.24
6435;BME280;3250;42.694;23.278;2024-03-23T04:59:05;94892.06;;;6.11;68.22
6435;BME280;3250;42.694;23.278;2024-03-23T05:01:31;94887.97;;;6.37;67.11
6435;BME280;3250;42.694;23.278;2024-03-23T05:03:57;94888.88;;;6.87;65.81
6435;BME280;3250;42.694;23.278;2024-03-23T05:06:23;94873.81;;;7.38;62.79
6435;BME280;3250;42.694;23.278;2024-03-23T05:08:49;94885.59;;;8.24;61.12
6435;BME280;3250;42.694;23.278;2024-03-23T05:11:14;94878.19;;;9.15;58.04
6435;BME280;3250;42.694;23.278;2024-03-23T05:13:43;94890.81;;;10.10;54.06
6435;BME280;3250;42.694;23.278;2024-03-23T05:16:09;94889.19;;;11.05;50.72
6435;BME280;3250;42.694;23.278;2024-03-23T05:18:34;94895.59;;;12.15;47.25
6435;BME280;3250;42.694;23.278;2024-03-23T05:21:00;94864.66;;;13.00;43.99
6435;BME280;3250;42.694;23.278;2024-03-23T05:23:27;94875.50;;;13.64;41.85
6435;BME280;3250;42.694;23.278;2024-03-23T05:25:53;94886.06;;;14.33;41.07
6435;BME280;3250;42.694;23.278;2024-03-23T05:28:19;94888.97;;;15.12;39.42
6435;BME280;3250;42.694;23.278;2024-03-23T05:30:50;94870.06;;;15.54;37.43
6435;BME280;3250;42.694;23.278;2024-03-23T05:33:16;94889.91;;;16.01;36.40
6435;BME280;3250;42.694;23.278;2024-03-23T05:35:41;94884.53;;;16.73;35.14
6435;BME280;3250;42.694;23.278;2024-03-23T05:38:07;94889.38;;;17.30;34.43
6435;BME280;3250;42.694;23.278;2024-03-23T05:40:32;94890.38;;;17.51;33.60
6435;BME280;3250;42.694;23.278;2024-03-23T05:43:02;94894.25;;;18.39;32.07
6435;BME280;3250;42.694;23.278;2024-03-23T05:45:28;94875.13;;;18.05;32.40
6435;BME280;3250;42.694;23.278;2024-03-23T05:47:54;94893.72;;;18.84;31.94
6435;BME280;3250;42.694;23.278;2024-03-23T05:50:22;94893.13;;;18.72;31.51
6435;BME280;3250;42.694;23.278;2024-03-23T05:52:48;94875.91;;;19.15;30.92
6435;BME280;3250;42.694;23.278;2024-03-23T05:55:14;94888.97;;;19.11;30.39
6435;BME280;3250;42.694;23.278;2024-03-23T05:57:39;94890.16;;;20.22;29.07
6435;BME280;3250;42.694;23.278;2024-03-23T06:00:05;94888.81;;;20.34;28.97
6435;BME280;3250;42.694;23.278;2024-03-23T06:02:35;94886.31;;;20.74;28.20
6435;BME280;3250;42.694;23.278;2024-03-23T06:05:01;94884.09;;;20.91;28.16
6435;BME280;3250;42.694;23.278;2024-03-23T06:07:27;94874.59;;;21.63;27.28
6435;BME280;3250;42.694;23.278;2024-03-23T06:09:52;94885.03;;;21.25;27.01
6435;BME280;3250;42.694;23.278;2024-03-23T06:12:18;94882.22;;;21.84;26.20
6435;BME280;3250;42.694;23.278;2024-03-23T06:14:44;94888.50;;;21.70;26.53
6435;BME280;3250;42.694;23.278;2024-03-23T06:17:09;94884.47;;;22.35;26.14
6435;BME280;3250;42.694;23.278;2024-03-23T06:19:34;94885.25;;;22.65;25.13
6435;BME280;3250;42.694;23.278;2024-03-23T06:22:00;94877.47;;;22.63;25.86
6435;BME280;3250;42.694;23.278;2024-03-23T06:24:25;94875.53;;;22.45;24.99
6435;BME280;3250;42.694;23.278;2024-03-23T06:26:51;94880.81;;;22.79;24.67
6435;BME280;3250;42.694;23.278;2024-03-23T06:29:16;94882.28;;;23.32;23.92
6435;BME280;3250;42.694;23.278;2024-03-23T06:31:42;94876.44;;;22.59;24.30
6435;BME280;3250;42.694;23.278;2024-03-23T06:34:07;94881.50;;;22.61;25.15
6435;BME280;3250;42.694;23.278;2024-03-23T06:36:33;94880.91;;;23.54;23.75
6435;BME280;3250;42.694;23.278;2024-03-23T06:38:58;94881.78;;;23.87;23.29
6435;BME280;3250;42.694;23.278;2024-03-23T06:41:25;94878.31;;;23.49;23.46
6435;BME280;3250;42.694;23.278;2024-03-23T06:43:51;94884.72;;;24.04;22.87
6435;BME280;3250;42.694;23.278;2024-03-23T06:46:17;94877.34;;;24.10;23.03
6435;BME280;3250;42.694;23.278;2024-03-23T06:48:44;94882.44;;;24.11;22.62
6435;BME280;3250;42.694;23.278;2024-03-23T06:51:11;94879.13;;;24.33;23.03
6435;BME280;3250;42.694;23.278;2024-03-23T06:53:37;94880.19;;;23.86;22.76
6435;BME280;3250;42.694;23.278;2024-03-23T06:56:03;94885.19;;;24.25;22.59
6435;BME280;3250;42.694;23.278;2024-03-23T06:58:28;94880.69;;;23.31;23.46
6435;BME280;3250;42.694;23.278;2024-03-23T07:00:54;94883.56;;;23.16;24.00
6435;BME280;3250;42.694;23.278;2024-03-23T07:03:20;94861.72;;;22.80;24.15
6435;BME280;3250;42.694;23.278;2024-03-23T07:05:46;94870.78;;;22.61;24.93
6435;BME280;3250;42.694;23.278;2024-03-23T07:08:13;94864.81;;;21.82;25.79
6435;BME280;3250;42.694;23.278;2024-03-23T07:10:43;94864.66;;;22.31;24.87
6435;BME280;3250;42.694;23.278;2024-03-23T07:13:09;94862.38;;;22.43;25.21
6435;BME280;3250;42.694;23.278;2024-03-23T07:15:35;94861.00;;;22.70;24.73
6435;BME280;3250;42.694;23.278;2024-03-23T07:18:00;94869.72;;;22.85;25.08
6435;BME280;3250;42.694;23.278;2024-03-23T07:20:26;94860.88;;;23.04;25.26
6435;BME280;3250;42.694;23.278;2024-03-23T07:22:52;94857.84;;;22.91;25.50
6435;BME280;3250;42.694;23.278;2024-03-23T07:25:17;94853.72;;;22.75;25.79
6435;BME280;3250;42.694;23.278;2024-03-23T07:27:43;94851.19;;;22.84;25.56
6435;BME280;3250;42.694;23.278;2024-03-23T07:30:08;94848.66;;;22.21;25.95
6435;BME280;3250;42.694;23.278;2024-03-23T07:32:35;94849.94;;;22.29;26.26
6435;BME280;3250;42.694;23.278;2024-03-23T07:35:01;94847.59;;;21.88;26.49
6435;BME280;3250;42.694;23.278;2024-03-23T07:37:26;94847.91;;;21.53;25.68
6435;BME280;3250;42.694;23.278;2024-03-23T07:39:51;94842.75;;;21.12;28.08
6435;BME280;3250;42.694;23.278;2024-03-23T07:42:17;94826.88;;;20.82;27.67
6435;BME280;3250;42.694;23.278;2024-03-23T07:44:42;94844.63;;;20.57;27.44
6435;BME280;3250;42.694;23.278;2024-03-23T07:47:08;94827.88;;;20.21;27.87
6435;BME280;3250;42.694;23.278;2024-03-23T07:49:33;94841.81;;;19.83;29.97
6435;BME280;3250;42.694;23.278;2024-03-23T07:51:59;94834.06;;;19.36;28.92
6435;BME280;3250;42.694;23.278;2024-03-23T07:54:24;94835.66;;;19.42;31.14
6435;BME280;3250;42.694;23.278;2024-03-23T07:56:50;94839.69;;;19.75;29.68
6435;BME280;3250;42.694;23.278;2024-03-23T07:59:15;94837.53;;;19.97;28.47
6435;BME280;3250;42.694;23.278;2024-03-23T08:01:42;94834.38;;;19.54;30.07
6435;BME280;3250;42.694;23.278;2024-03-23T08:04:08;94827.69;;;19.62;31.55
6435;BME280;3250;42.694;23.278;2024-03-23T08:06:34;94820.66;;;20.12;30.67
6435;BME280;3250;42.694;23.278;2024-03-23T08:09:00;94814.41;;;20.52;29.63
6435;BME280;3250;42.694;23.278;2024-03-23T08:11:26;94809.22;;;20.81;28.11
6435;BME280;3250;42.694;23.278;2024-03-23T08:13:52;94828.09;;;20.45;28.07
6435;BME280;3250;42.694;23.278;2024-03-23T08:16:17;94820.66;;;20.12;28.07
6435;BME280;3250;42.694;23.278;2024-03-23T08:18:43;94820.88;;;18.26;30.62
6435;BME280;3250;42.694;23.278;2024-03-23T08:21:09;94823.84;;;18.30;33.05
6435;BME280;3250;42.694;23.278;2024-03-23T08:23:36;94816.66;;;19.13;31.26
6435;BME280;3250;42.694;23.278;2024-03-23T08:26:07;94811.88;;;19.91;30.68
6435;BME280;3250;42.694;23.278;2024-03-23T08:28:34;94812.06;;;20.35;31.07
6435;BME280;3250;42.694;23.278;2024-03-23T08:31:07;94819.03;;;20.36;30.89
6435;BME280;3250;42.694;23.278;2024-03-23T08:33:33;94803.72;;;20.57;30.02
6435;BME280;3250;42.694;23.278;2024-03-23T08:36:01;94807.78;;;20.93;30.59
6435;BME280;3250;42.694;23.278;2024-03-23T08:38:27;94802.72;;;20.92;28.61
6435;BME280;3250;42.694;23.278;2024-03-23T08:43:32;94792.91;;;19.82;28.71
6435;BME280;3250;42.694;23.278;2024-03-23T08:46:14;94797.97;;;19.99;29.05
6435;BME280;3250;42.694;23.278;2024-03-23T08:48:45;94792.75;;;18.51;30.64
6435;BME280;3250;42.694;23.278;2024-03-23T08:51:14;94798.13;;;18.61;31.66
6435;BME280;3250;42.694;23.278;2024-03-23T08:53:41;94785.88;;;18.70;31.99
6435;BME280;3250;42.694;23.278;2024-03-23T08:56:09;94778.25;;;19.19;31.26
6435;BME280;3250;42.694;23.278;2024-03-23T08:58:35;94776.66;;;19.69;30.46
6435;BME280;3250;42.694;23.278;2024-03-23T09:01:13;94772.09;;;19.79;31.12
6435;BME280;3250;42.694;23.278;2024-03-23T09:03:39;94756.25;;;20.08;30.32
6435;BME280;3250;42.694;23.278;2024-03-23T09:06:09;94768.63;;;20.63;28.88
6435;BME280;3250;42.694;23.278;2024-03-23T09:08:34;94754.69;;;19.92;28.97
6435;BME280;3250;42.694;23.278;2024-03-23T09:11:08;94769.81;;;20.27;28.93
6435;BME280;3250;42.694;23.278;2024-03-23T09:13:34;94759.81;;;18.20;33.43
6435;BME280;3250;42.694;23.278;2024-03-23T09:16:00;94730.59;;;17.41;34.03
6435;BME280;3250;42.694;23.278;2024-03-23T09:18:26;94752.13;;;18.28;32.97
6435;BME280;3250;42.694;23.278;2024-03-23T09:20:51;94748.06;;;18.98;31.93
6435;BME280;3250;42.694;23.278;2024-03-23T09:23:18;94742.75;;;19.54;31.07
6435;BME280;3250;42.694;23.278;2024-03-23T09:25:44;94740.25;;;20.03;30.24
6435;BME280;3250;42.694;23.278;2024-03-23T09:28:09;94720.50;;;19.94;29.87
6435;BME280;3250;42.694;23.278;2024-03-23T09:30:35;94732.28;;;19.83;31.39
6435;BME280;3250;42.694;23.278;2024-03-23T09:33:07;94726.44;;;19.40;30.87
6435;BME280;3250;42.694;23.278;2024-03-23T09:35:39;94705.31;;;19.79;31.17
6435;BME280;3250;42.694;23.278;2024-03-23T09:38:05;94720.22;;;19.95;33.33
6435;BME280;3250;42.694;23.278;2024-03-23T09:40:33;94715.81;;;20.30;31.00
6435;BME280;3250;42.694;23.278;2024-03-23T09:42:58;94709.94;;;20.28;29.51
6435;BME280;3250;42.694;23.278;2024-03-23T09:45:28;94699.50;;;20.31;30.39
6435;BME280;3250;42.694;23.278;2024-03-23T09:47:57;94681.91;;;20.20;28.92
6435;BME280;3250;42.694;23.278;2024-03-23T09:50:23;94693.97;;;20.13;29.58
6435;BME280;3250;42.694;23.278;2024-03-23T09:52:49;94682.06;;;19.80;30.63
6435;BME280;3250;42.694;23.278;2024-03-23T09:55:15;94692.50;;;19.76;30.48
6435;BME280;3250;42.694;23.278;2024-03-23T09:57:42;94675.44;;;19.62;29.76
6435;BME280;3250;42.694;23.278;2024-03-23T10:00:09;94682.38;;;19.58;29.94
6435;BME280;3250;42.694;23.278;2024-03-23T10:02:35;94675.47;;;19.32;30.30
6435;BME280;3250;42.694;23.278;2024-03-23T10:05:01;94670.50;;;17.97;32.48
6435;BME280;3250;42.694;23.278;2024-03-23T10:07:26;94664.88;;;17.41;32.75
6435;BME280;3250;42.694;23.278;2024-03-23T10:09:54;94669.44;;;17.04;32.93
6435;BME280;3250;42.694;23.278;2024-03-23T10:12:20;94631.75;;;16.80;33.08
6435;BME280;3250;42.694;23.278;2024-03-23T10:14:46;94658.97;;;17.29;35.72
6435;BME280;3250;42.694;23.278;2024-03-23T10:17:18;94662.28;;;17.51;33.25
6435;BME280;3250;42.694;23.278;2024-03-23T10:19:44;94651.50;;;17.78;32.94
6435;BME280;3250;42.694;23.278;2024-03-23T10:22:13;94616.06;;;17.67;34.05
6435;BME280;3250;42.694;23.278;2024-03-23T10:24:39;94645.28;;;18.25;35.01
6435;BME280;3250;42.694;23.278;2024-03-23T10:27:05;94646.06;;;18.30;31.58
6435;BME280;3250;42.694;23.278;2024-03-23T10:29:30;94636.75;;;18.33;31.46
6435;BME280;3250;42.694;23.278;2024-03-23T10:32:09;94630.09;;;18.45;33.06
6435;BME280;3250;42.694;23.278;2024-03-23T10:34:36;94627.41;;;18.25;32.64
6435;BME280;3250;42.694;23.278;2024-03-23T10:37:03;94621.22;;;17.99;33.34
6435;BME280;3250;42.694;23.278;2024-03-23T10:39:39;94621.47;;;17.88;33.35
6435;BME280;3250;42.694;23.278;2024-03-23T10:42:06;94608.94;;;17.88;32.18
6435;BME280;3250;42.694;23.278;2024-03-23T10:44:33;94601.72;;;17.79;31.53
6435;BME280;3250;42.694;23.278;2024-03-23T10:47:01;94596.91;;;17.70;32.54
6435;BME280;3250;42.694;23.278;2024-03-23T10:49:33;94590.56;;;17.87;32.89
6435;BME280;3250;42.694;23.278;2024-03-23T10:52:00;94588.06;;;17.13;32.64
6435;BME280;3250;42.694;23.278;2024-03-23T10:54:26;94582.72;;;17.03;33.55
6435;BME280;3250;42.694;23.278;2024-03-23T10:59:24;94548.47;;;17.16;34.60
6435;BME280;3250;42.694;23.278;2024-03-23T11:01:57;94553.44;;;17.60;35.26
6435;BME280;3250;42.694;23.278;2024-03-23T11:04:33;94552.94;;;17.63;32.01
6435;BME280;3250;42.694;23.278;2024-03-23T11:06:59;94542.94;;;17.33;33.77
6435;BME280;3250;42.694;23.278;2024-03-23T11:14:47;94537.06;;;18.24;32.67
6435;BME280;3250;42.694;23.278;2024-03-23T11:17:23;94525.09;;;18.41;31.45
6435;BME280;3250;42.694;23.278;2024-03-23T11:22:43;94518.66;;;18.42;31.19
6435;BME280;3250;42.694;23.278;2024-03-23T11:25:16;94500.28;;;18.26;31.92
6435;BME280;3250;42.694;23.278;2024-03-23T11:27:45;94503.75;;;18.36;32.53
6435;BME280;3250;42.694;23.278;2024-03-23T11:30:12;94508.53;;;18.44;31.14
6435;BME280;3250;42.694;23.278;2024-03-23T11:32:38;94509.63;;;18.38;30.37
6435;BME280;3250;42.694;23.278;2024-03-23T11:35:04;94495.75;;;18.11;30.71
6435;BME280;3250;42.694;23.278;2024-03-23T11:37:30;94478.72;;;18.07;31.46
6435;BME280;3250;42.694;23.278;2024-03-23T11:39:56;94490.16;;;18.13;30.36
6435;BME280;3250;42.694;23.278;2024-03-23T11:42:21;94491.13;;;17.56;31.71
6435;BME280;3250;42.694;23.278;2024-03-23T11:44:47;94466.88;;;17.37;31.57
6435;BME280;3250;42.694;23.278;2024-03-23T11:47:12;94478.31;;;17.43;31.85
6435;BME280;3250;42.694;23.278;2024-03-23T11:49:38;94468.78;;;17.47;33.32
6435;BME280;3250;42.694;23.278;2024-03-23T11:52:07;94457.03;;;17.43;32.88
6435;BME280;3250;42.694;23.278;2024-03-23T11:54:33;94452.06;;;17.82;31.64
6435;BME280;3250;42.694;23.278;2024-03-23T11:57:00;94455.53;;;18.13;30.81
6435;BME280;3250;42.694;23.278;2024-03-23T11:59:37;94444.88;;;18.02;30.36
6435;BME280;3250;42.694;23.278;2024-03-23T12:02:10;94442.94;;;17.52;30.41
6435;BME280;3250;42.694;23.278;2024-03-23T12:04:38;94417.38;;;17.41;30.61
6435;BME280;3250;42.694;23.278;2024-03-23T12:07:11;94431.56;;;17.92;31.09
6435;BME280;3250;42.694;23.278;2024-03-23T12:09:37;94415.84;;;18.01;32.07
6435;BME280;3250;42.694;23.278;2024-03-23T12:12:29;94424.66;;;17.96;30.23
6435;BME280;3250;42.694;23.278;2024-03-23T12:15:04;94417.19;;;17.88;27.19
6435;BME280;3250;42.694;23.278;2024-03-23T12:17:31;94414.50;;;17.93;29.18
6435;BME280;3250;42.694;23.278;2024-03-23T12:19:57;94417.72;;;17.85;26.67
6435;BME280;3250;42.694;23.278;2024-03-23T12:22:23;94403.84;;;17.73;26.22
6435;BME280;3250;42.694;23.278;2024-03-23T12:24:49;94400.66;;;18.12;27.26
6435;BME280;3250;42.694;23.278;2024-03-23T12:27:15;94404.06;;;18.37;27.42
6435;BME280;3250;42.694;23.278;2024-03-23T12:29:41;94390.69;;;18.63;27.06
6435;BME280;3250;42.694;23.278;2024-03-23T12:32:08;94404.47;;;18.90;24.94
6435;BME280;3250;42.694;23.278;2024-03-23T12:34:34;94395.34;;;19.01;24.01
6435;BME280;3250;42.694;23.278;2024-03-23T12:37:00;94392.31;;;19.18;24.96
6435;BME280;3250;42.694;23.278;2024-03-23T12:39:26;94387.97;;;19.32;26.43
6435;BME280;3250;42.694;23.278;2024-03-23T12:41:52;94362.38;;;19.26;26.09
6435;BME280;3250;42.694;23.278;2024-03-23T12:44:20;94386.13;;;19.28;24.32
6435;BME280;3250;42.694;23.278;2024-03-23T12:46:46;94370.13;;;19.28;24.73
6435;BME280;3250;42.694;23.278;2024-03-23T12:49:12;94360.78;;;19.25;23.62
6435;BME280;3250;42.694;23.278;2024-03-23T12:51:38;94380.41;;;19.49;24.98
6435;BME280;3250;42.694;23.278;2024-03-23T12:54:03;94370.25;;;19.46;24.33
6435;BME280;3250;42.694;23.278;2024-03-23T12:56:29;94366.72;;;19.56;24.64
6435;BME280;3250;42.694;23.278;2024-03-23T12:58:55;94353.91;;;19.58;24.28
6435;BME280;3250;42.694;23.278;2024-03-23T13:01:25;94353.09;;;19.63;23.87
6435;BME280;3250;42.694;23.278;2024-03-23T13:03:51;94358.44;;;19.63;24.16
6435;BME280;3250;42.694;23.278;2024-03-23T13:06:17;94352.09;;;19.53;22.92
6435;BME280;3250;42.694;23.278;2024-03-23T13:08:47;94348.19;;;19.31;24.67
6435;BME280;3250;42.694;23.278;2024-03-23T13:11:13;94337.81;;;18.85;22.16
6435;BME280;3250;42.694;23.278;2024-03-23T13:13:39;94332.34;;;19.05;23.62
6435;BME280;3250;42.694;23.278;2024-03-23T13:16:05;94333.84;;;19.21;23.07
6435;BME280;3250;42.694;23.278;2024-03-23T13:18:31;94329.41;;;19.07;23.21
6435;BME280;3250;42.694;23.278;2024-03-23T13:20:57;94334.59;;;18.88;23.44
6435;BME280;3250;42.694;23.278;2024-03-23T13:23:23;94331.28;;;19.06;24.84
6435;BME280;3250;42.694;23.278;2024-03-23T13:25:52;94322.94;;;19.18;24.01
6435;BME280;3250;42.694;23.278;2024-03-23T13:28:21;94310.16;;;19.15;23.99
6435;BME280;3250;42.694;23.278;2024-03-23T13:30:55;94311.09;;;18.90;23.80
6435;BME280;3250;42.694;23.278;2024-03-23T13:33:21;94312.53;;;19.16;24.13
6435;BME280;3250;42.694;23.278;2024-03-23T13:35:54;94310.03;;;19.30;23.91
6435;BME280;3250;42.694;23.278;2024-03-23T13:38:22;94311.34;;;19.33;24.30
6435;BME280;3250;42.694;23.278;2024-03-23T13:40:57;94305.81;;;19.24;23.34
6435;BME280;3250;42.694;23.278;2024-03-23T13:43:24;94304.22;;;19.23;24.93
6435;BME280;3250;42.694;23.278;2024-03-23T13:45:54;94301.53;;;19.28;24.41
6435;BME280;3250;42.694;23.278;2024-03-23T13:48:21;94296.13;;;19.33;24.40
6435;BME280;3250;42.694;23.278;2024-03-23T13:50:47;94271.91;;;19.25;24.61
6435;BME280;3250;42.694;23.278;2024-03-23T13:53:14;94291.53;;;19.39;24.01
6435;BME280;3250;42.694;23.278;2024-03-23T13:55:46;94287.00;;;19.39;24.22
6435;BME280;3250;42.694;23.278;2024-03-23T13:58:12;94287.00;;;19.05;24.50
6435;BME280;3250;42.694;23.278;2024-03-23T14:00:38;94282.34;;;19.21;25.29
6435;BME280;3250;42.694;23.278;2024-03-23T14:03:03;94283.06;;;19.32;25.83
6435;BME280;3250;42.694;23.278;2024-03-23T14:05:29;94265.03;;;19.18;24.13
6435;BME280;3250;42.694;23.278;2024-03-23T14:07:54;94278.41;;;19.13;23.37
6435;BME280;3250;42.694;23.278;2024-03-23T14:10:20;94253.59;;;18.74;23.55
6435;BME280;3250;42.694;23.278;2024-03-23T14:12:45;94272.34;;;18.59;23.91
6435;BME280;3250;42.694;23.278;2024-03-23T14:15:11;94273.13;;;18.64;25.25
6435;BME280;3250;42.694;23.278;2024-03-23T14:17:36;94268.09;;;18.47;24.80